Millwood, Missouri
Current Conditions -  °F | °C
As of 2:54 PM on Tuesday 25 Nov 2014 (Local Time) from KSET Reporting Station
Clear Clear  
Wind Chill: 35°   Ceiling: Unl
Heat Index: 39°   Visibility: 10mi
Dew Point: 22°   Wind: 6mph
Humidity: 50%   Direction: 290°WNW
Pressure: 30.15"   Gusts: NA
Location:  39.1404°N, 91.0631°W
Report Text: KSET 252054Z AUTO 29005KT 10SM CLR 04/M06 A3015 RMK AO2 SLP212 T00391056 56019
Loading
Personal Weather Stations






























Interactive Weather Map New forecast layout! Learn more

10-Day Weather Forecast

Advertisements
Track Severe Weather on mobile